sensor_id;sensor_type;location;lat;lon;timestamp;P1;durP1;ratioP1;P2;durP2;ratioP2
59872;SDS011;50750;51.636;4.948;2024-01-11T00:00:25;11.50;;;7.00;;
59872;SDS011;50750;51.636;4.948;2024-01-11T00:03:15;10.60;;;6.90;;
59872;SDS011;50750;51.636;4.948;2024-01-11T00:05:46;12.20;;;7.60;;
59872;SDS011;50750;51.636;4.948;2024-01-11T00:08:16;12.70;;;7.80;;
59872;SDS011;50750;51.636;4.948;2024-01-11T00:10:47;12.70;;;7.80;;
59872;SDS011;50750;51.636;4.948;2024-01-11T00:13:17;13.40;;;7.80;;
59872;SDS011;50750;51.636;4.948;2024-01-11T00:15:47;13.30;;;7.40;;
59872;SDS011;50750;51.636;4.948;2024-01-11T00:18:18;12.30;;;7.50;;
59872;SDS011;50750;51.636;4.948;2024-01-11T00:20:48;12.90;;;7.30;;
59872;SDS011;50750;51.636;4.948;2024-01-11T00:23:19;12.90;;;7.70;;
59872;SDS011;50750;51.636;4.948;2024-01-11T00:25:50;12.40;;;7.60;;
59872;SDS011;50750;51.636;4.948;2024-01-11T00:28:21;10.80;;;7.40;;
59872;SDS011;50750;51.636;4.948;2024-01-11T00:30:51;11.70;;;7.00;;
59872;SDS011;50750;51.636;4.948;2024-01-11T00:33:21;12.70;;;7.00;;
59872;SDS011;50750;51.636;4.948;2024-01-11T00:35:52;12.30;;;7.40;;
59872;SDS011;50750;51.636;4.948;2024-01-11T00:38:24;11.60;;;7.30;;
59872;SDS011;50750;51.636;4.948;2024-01-11T00:40:54;12.50;;;7.60;;
59872;SDS011;50750;51.636;4.948;2024-01-11T00:43:24;12.80;;;7.20;;
59872;SDS011;50750;51.636;4.948;2024-01-11T00:45:55;12.70;;;7.60;;
59872;SDS011;50750;51.636;4.948;2024-01-11T00:48:25;14.50;;;7.50;;
59872;SDS011;50750;51.636;4.948;2024-01-11T00:50:55;12.40;;;7.50;;
59872;SDS011;50750;51.636;4.948;2024-01-11T00:53:26;13.30;;;7.20;;
59872;SDS011;50750;51.636;4.948;2024-01-11T00:55:58;11.10;;;7.00;;
59872;SDS011;50750;51.636;4.948;2024-01-11T00:58:28;12.60;;;7.80;;
59872;SDS011;50750;51.636;4.948;2024-01-11T01:00:59;11.40;;;7.20;;
59872;SDS011;50750;51.636;4.948;2024-01-11T01:03:29;11.70;;;7.40;;
59872;SDS011;50750;51.636;4.948;2024-01-11T01:05:59;13.10;;;7.50;;
59872;SDS011;50750;51.636;4.948;2024-01-11T01:08:30;11.60;;;7.40;;
59872;SDS011;50750;51.636;4.948;2024-01-11T01:11:00;12.50;;;7.80;;
59872;SDS011;50750;51.636;4.948;2024-01-11T01:13:31;12.90;;;7.30;;
59872;SDS011;50750;51.636;4.948;2024-01-11T01:16:01;11.50;;;7.50;;
59872;SDS011;50750;51.636;4.948;2024-01-11T01:18:32;11.30;;;6.70;;
59872;SDS011;50750;51.636;4.948;2024-01-11T01:21:03;13.00;;;7.10;;
59872;SDS011;50750;51.636;4.948;2024-01-11T01:23:34;11.50;;;7.20;;
59872;SDS011;50750;51.636;4.948;2024-01-11T01:26:07;12.60;;;7.90;;
59872;SDS011;50750;51.636;4.948;2024-01-11T01:28:37;12.20;;;7.20;;
59872;SDS011;50750;51.636;4.948;2024-01-11T01:31:08;11.40;;;7.40;;
59872;SDS011;50750;51.636;4.948;2024-01-11T01:33:38;10.20;;;6.90;;
59872;SDS011;50750;51.636;4.948;2024-01-11T01:36:09;11.30;;;6.70;;
59872;SDS011;50750;51.636;4.948;2024-01-11T01:38:40;13.00;;;7.70;;
59872;SDS011;50750;51.636;4.948;2024-01-11T01:41:10;12.30;;;7.00;;
59872;SDS011;50750;51.636;4.948;2024-01-11T01:43:43;12.20;;;7.40;;
59872;SDS011;50750;51.636;4.948;2024-01-11T01:46:14;13.00;;;7.70;;
59872;SDS011;50750;51.636;4.948;2024-01-11T01:48:52;11.80;;;7.20;;
59872;SDS011;50750;51.636;4.948;2024-01-11T01:51:29;12.70;;;7.40;;
59872;SDS011;50750;51.636;4.948;2024-01-11T01:54:00;12.70;;;7.10;;
59872;SDS011;50750;51.636;4.948;2024-01-11T01:56:32;12.90;;;7.20;;
59872;SDS011;50750;51.636;4.948;2024-01-11T01:59:02;12.20;;;7.40;;
59872;SDS011;50750;51.636;4.948;2024-01-11T02:01:34;12.30;;;7.60;;
59872;SDS011;50750;51.636;4.948;2024-01-11T02:04:04;11.80;;;7.30;;
59872;SDS011;50750;51.636;4.948;2024-01-11T02:06:35;13.70;;;7.80;;
59872;SDS011;50750;51.636;4.948;2024-01-11T02:09:06;11.70;;;7.30;;
59872;SDS011;50750;51.636;4.948;2024-01-11T02:11:37;10.80;;;6.70;;
59872;SDS011;50750;51.636;4.948;2024-01-11T02:14:10;11.80;;;7.40;;
59872;SDS011;50750;51.636;4.948;2024-01-11T02:16:40;14.60;;;7.90;;
59872;SDS011;50750;51.636;4.948;2024-01-11T02:19:11;11.30;;;7.10;;
59872;SDS011;50750;51.636;4.948;2024-01-11T02:21:43;11.90;;;7.00;;
59872;SDS011;50750;51.636;4.948;2024-01-11T02:24:18;13.60;;;7.50;;
59872;SDS011;50750;51.636;4.948;2024-01-11T02:26:58;12.10;;;7.20;;
59872;SDS011;50750;51.636;4.948;2024-01-11T02:29:30;10.90;;;7.20;;
59872;SDS011;50750;51.636;4.948;2024-01-11T02:32:01;11.90;;;7.30;;
59872;SDS011;50750;51.636;4.948;2024-01-11T02:34:33;10.40;;;6.70;;
59872;SDS011;50750;51.636;4.948;2024-01-11T02:37:05;11.00;;;7.30;;
59872;SDS011;50750;51.636;4.948;2024-01-11T02:39:36;13.40;;;7.70;;
59872;SDS011;50750;51.636;4.948;2024-01-11T02:42:07;11.40;;;7.10;;
59872;SDS011;50750;51.636;4.948;2024-01-11T02:44:38;9.60;;;7.00;;
59872;SDS011;50750;51.636;4.948;2024-01-11T02:47:08;11.40;;;7.30;;
59872;SDS011;50750;51.636;4.948;2024-01-11T02:49:38;12.50;;;7.80;;
59872;SDS011;50750;51.636;4.948;2024-01-11T02:52:09;10.90;;;6.70;;
59872;SDS011;50750;51.636;4.948;2024-01-11T02:54:39;12.30;;;7.10;;
59872;SDS011;50750;51.636;4.948;2024-01-11T02:57:09;14.80;;;7.80;;
59872;SDS011;50750;51.636;4.948;2024-01-11T02:59:41;13.10;;;7.10;;
59872;SDS011;50750;51.636;4.948;2024-01-11T03:02:12;12.40;;;7.10;;
59872;SDS011;50750;51.636;4.948;2024-01-11T03:04:42;12.40;;;7.20;;
59872;SDS011;50750;51.636;4.948;2024-01-11T03:07:12;11.80;;;7.10;;
59872;SDS011;50750;51.636;4.948;2024-01-11T03:09:43;12.50;;;7.00;;
59872;SDS011;50750;51.636;4.948;2024-01-11T03:12:13;12.60;;;7.70;;
59872;SDS011;50750;51.636;4.948;2024-01-11T03:14:44;11.70;;;7.30;;
59872;SDS011;50750;51.636;4.948;2024-01-11T03:17:14;13.00;;;7.30;;
59872;SDS011;50750;51.636;4.948;2024-01-11T03:19:44;12.30;;;7.50;;
59872;SDS011;50750;51.636;4.948;2024-01-11T03:22:15;12.50;;;7.30;;
59872;SDS011;50750;51.636;4.948;2024-01-11T03:24:45;11.30;;;6.80;;
59872;SDS011;50750;51.636;4.948;2024-01-11T03:27:15;11.30;;;6.80;;
59872;SDS011;50750;51.636;4.948;2024-01-11T03:29:46;12.60;;;7.40;;
59872;SDS011;50750;51.636;4.948;2024-01-11T03:32:16;11.50;;;6.90;;
59872;SDS011;50750;51.636;4.948;2024-01-11T03:34:47;12.20;;;7.10;;
59872;SDS011;50750;51.636;4.948;2024-01-11T03:37:17;12.00;;;7.50;;
59872;SDS011;50750;51.636;4.948;2024-01-11T03:39:47;13.20;;;7.40;;
59872;SDS011;50750;51.636;4.948;2024-01-11T03:42:18;12.30;;;7.70;;
59872;SDS011;50750;51.636;4.948;2024-01-11T03:44:48;12.30;;;7.60;;
59872;SDS011;50750;51.636;4.948;2024-01-11T03:47:18;12.20;;;7.20;;
59872;SDS011;50750;51.636;4.948;2024-01-11T03:49:49;12.80;;;7.30;;
59872;SDS011;50750;51.636;4.948;2024-01-11T03:52:19;14.20;;;7.70;;
59872;SDS011;50750;51.636;4.948;2024-01-11T03:54:49;12.20;;;7.30;;
59872;SDS011;50750;51.636;4.948;2024-01-11T03:57:19;11.20;;;7.10;;
59872;SDS011;50750;51.636;4.948;2024-01-11T03:59:50;10.90;;;6.70;;
59872;SDS011;50750;51.636;4.948;2024-01-11T04:02:21;12.20;;;6.80;;
59872;SDS011;50750;51.636;4.948;2024-01-11T04:04:52;10.70;;;6.60;;
59872;SDS011;50750;51.636;4.948;2024-01-11T04:07:22;12.60;;;7.00;;
59872;SDS011;50750;51.636;4.948;2024-01-11T04:09:52;10.30;;;7.00;;
59872;SDS011;50750;51.636;4.948;2024-01-11T04:12:23;10.60;;;7.00;;
59872;SDS011;50750;51.636;4.948;2024-01-11T04:14:53;13.80;;;7.40;;
59872;SDS011;50750;51.636;4.948;2024-01-11T04:17:23;10.40;;;7.10;;
59872;SDS011;50750;51.636;4.948;2024-01-11T04:19:54;11.10;;;6.80;;
59872;SDS011;50750;51.636;4.948;2024-01-11T04:22:25;11.10;;;6.40;;
59872;SDS011;50750;51.636;4.948;2024-01-11T04:24:58;11.30;;;7.30;;
59872;SDS011;50750;51.636;4.948;2024-01-11T04:27:28;11.40;;;7.00;;
59872;SDS011;50750;51.636;4.948;2024-01-11T04:29:58;10.10;;;6.80;;
59872;SDS011;50750;51.636;4.948;2024-01-11T04:32:28;12.40;;;7.20;;
59872;SDS011;50750;51.636;4.948;2024-01-11T04:34:59;10.10;;;6.80;;
59872;SDS011;50750;51.636;4.948;2024-01-11T04:37:29;11.70;;;7.00;;
59872;SDS011;50750;51.636;4.948;2024-01-11T04:39:59;12.40;;;6.80;;
59872;SDS011;50750;51.636;4.948;2024-01-11T04:42:31;11.50;;;7.20;;
59872;SDS011;50750;51.636;4.948;2024-01-11T04:45:01;11.80;;;6.70;;
59872;SDS011;50750;51.636;4.948;2024-01-11T04:47:32;11.70;;;6.90;;
59872;SDS011;50750;51.636;4.948;2024-01-11T04:50:03;12.60;;;7.00;;
59872;SDS011;50750;51.636;4.948;2024-01-11T04:52:34;12.40;;;7.30;;
59872;SDS011;50750;51.636;4.948;2024-01-11T04:55:05;12.90;;;7.30;;
59872;SDS011;50750;51.636;4.948;2024-01-11T04:57:36;9.90;;;6.40;;
59872;SDS011;50750;51.636;4.948;2024-01-11T05:00:07;11.50;;;7.10;;
59872;SDS011;50750;51.636;4.948;2024-01-11T05:02:38;11.10;;;7.00;;
59872;SDS011;50750;51.636;4.948;2024-01-11T05:05:09;10.60;;;6.80;;
59872;SDS011;50750;51.636;4.948;2024-01-11T05:07:40;10.00;;;6.70;;
59872;SDS011;50750;51.636;4.948;2024-01-11T05:10:10;12.10;;;7.20;;
59872;SDS011;50750;51.636;4.948;2024-01-11T05:12:41;11.20;;;7.00;;
59872;SDS011;50750;51.636;4.948;2024-01-11T05:15:11;12.20;;;6.90;;
59872;SDS011;50750;51.636;4.948;2024-01-11T05:17:42;10.40;;;6.70;;
59872;SDS011;50750;51.636;4.948;2024-01-11T05:20:12;11.60;;;7.10;;
59872;SDS011;50750;51.636;4.948;2024-01-11T05:22:43;10.80;;;6.70;;
59872;SDS011;50750;51.636;4.948;2024-01-11T05:25:13;10.90;;;6.70;;
59872;SDS011;50750;51.636;4.948;2024-01-11T05:27:44;11.10;;;6.50;;
59872;SDS011;50750;51.636;4.948;2024-01-11T05:30:15;11.40;;;6.90;;
59872;SDS011;50750;51.636;4.948;2024-01-11T05:32:45;9.50;;;6.20;;
59872;SDS011;50750;51.636;4.948;2024-01-11T05:35:15;10.50;;;6.40;;
59872;SDS011;50750;51.636;4.948;2024-01-11T05:37:46;11.20;;;6.80;;
59872;SDS011;50750;51.636;4.948;2024-01-11T05:40:16;9.50;;;6.30;;
59872;SDS011;50750;51.636;4.948;2024-01-11T05:42:47;9.80;;;6.40;;
59872;SDS011;50750;51.636;4.948;2024-01-11T05:45:18;10.30;;;7.00;;
59872;SDS011;50750;51.636;4.948;2024-01-11T05:47:48;10.60;;;6.40;;
59872;SDS011;50750;51.636;4.948;2024-01-11T05:50:19;10.80;;;6.60;;
59872;SDS011;50750;51.636;4.948;2024-01-11T05:52:49;11.40;;;7.00;;
59872;SDS011;50750;51.636;4.948;2024-01-11T05:55:21;10.80;;;7.00;;
59872;SDS011;50750;51.636;4.948;2024-01-11T05:57:52;11.60;;;6.90;;
59872;SDS011;50750;51.636;4.948;2024-01-11T06:00:23;10.90;;;7.00;;
59872;SDS011;50750;51.636;4.948;2024-01-11T06:02:54;11.20;;;6.70;;
59872;SDS011;50750;51.636;4.948;2024-01-11T06:05:24;11.50;;;7.10;;
59872;SDS011;50750;51.636;4.948;2024-01-11T06:07:55;9.60;;;6.20;;
59872;SDS011;50750;51.636;4.948;2024-01-11T06:10:25;11.10;;;6.80;;
59872;SDS011;50750;51.636;4.948;2024-01-11T06:12:55;10.80;;;6.60;;
59872;SDS011;50750;51.636;4.948;2024-01-11T06:15:26;10.90;;;6.80;;
59872;SDS011;50750;51.636;4.948;2024-01-11T06:17:56;9.90;;;6.20;;
59872;SDS011;50750;51.636;4.948;2024-01-11T06:20:26;10.10;;;6.70;;
59872;SDS011;50750;51.636;4.948;2024-01-11T06:22:58;11.90;;;6.70;;
59872;SDS011;50750;51.636;4.948;2024-01-11T06:25:29;11.10;;;6.80;;
59872;SDS011;50750;51.636;4.948;2024-01-11T06:27:59;10.80;;;6.20;;
59872;SDS011;50750;51.636;4.948;2024-01-11T06:30:31;10.70;;;6.40;;
59872;SDS011;50750;51.636;4.948;2024-01-11T06:33:01;11.10;;;6.80;;
59872;SDS011;50750;51.636;4.948;2024-01-11T06:35:32;10.20;;;6.90;;
59872;SDS011;50750;51.636;4.948;2024-01-11T06:38:03;11.60;;;6.80;;
59872;SDS011;50750;51.636;4.948;2024-01-11T06:40:33;10.60;;;6.40;;
59872;SDS011;50750;51.636;4.948;2024-01-11T06:43:04;10.60;;;6.40;;
59872;SDS011;50750;51.636;4.948;2024-01-11T06:45:34;10.70;;;6.40;;
59872;SDS011;50750;51.636;4.948;2024-01-11T06:48:06;10.10;;;6.70;;
59872;SDS011;50750;51.636;4.948;2024-01-11T06:50:38;12.60;;;7.10;;
59872;SDS011;50750;51.636;4.948;2024-01-11T06:53:09;11.00;;;7.20;;
59872;SDS011;50750;51.636;4.948;2024-01-11T06:55:39;10.70;;;6.80;;
59872;SDS011;50750;51.636;4.948;2024-01-11T06:58:11;9.70;;;6.40;;
59872;SDS011;50750;51.636;4.948;2024-01-11T07:00:41;11.80;;;6.70;;
59872;SDS011;50750;51.636;4.948;2024-01-11T07:03:12;10.60;;;6.00;;
59872;SDS011;50750;51.636;4.948;2024-01-11T07:05:42;10.50;;;6.70;;
59872;SDS011;50750;51.636;4.948;2024-01-11T07:08:13;11.00;;;6.50;;
59872;SDS011;50750;51.636;4.948;2024-01-11T07:10:43;10.10;;;6.50;;
59872;SDS011;50750;51.636;4.948;2024-01-11T07:13:13;10.20;;;6.40;;
59872;SDS011;50750;51.636;4.948;2024-01-11T07:15:44;10.90;;;6.10;;
59872;SDS011;50750;51.636;4.948;2024-01-11T07:18:15;12.00;;;7.10;;
59872;SDS011;50750;51.636;4.948;2024-01-11T07:20:46;10.30;;;6.80;;
59872;SDS011;50750;51.636;4.948;2024-01-11T07:23:17;11.70;;;6.70;;
59872;SDS011;50750;51.636;4.948;2024-01-11T07:25:48;11.60;;;7.10;;
59872;SDS011;50750;51.636;4.948;2024-01-11T07:28:18;11.30;;;6.60;;
59872;SDS011;50750;51.636;4.948;2024-01-11T07:30:54;10.40;;;6.70;;
59872;SDS011;50750;51.636;4.948;2024-01-11T07:33:24;11.70;;;6.70;;
59872;SDS011;50750;51.636;4.948;2024-01-11T07:35:56;11.10;;;7.00;;
59872;SDS011;50750;51.636;4.948;2024-01-11T07:38:27;10.40;;;6.70;;
59872;SDS011;50750;51.636;4.948;2024-01-11T07:40:57;10.40;;;6.60;;
59872;SDS011;50750;51.636;4.948;2024-01-11T07:43:28;10.10;;;6.80;;
59872;SDS011;50750;51.636;4.948;2024-01-11T07:46:02;10.80;;;6.70;;
59872;SDS011;50750;51.636;4.948;2024-01-11T07:48:35;11.10;;;7.10;;
59872;SDS011;50750;51.636;4.948;2024-01-11T07:51:05;11.80;;;6.70;;
59872;SDS011;50750;51.636;4.948;2024-01-11T07:53:35;11.00;;;7.10;;
59872;SDS011;50750;51.636;4.948;2024-01-11T07:56:07;10.40;;;6.60;;
59872;SDS011;50750;51.636;4.948;2024-01-11T07:58:38;10.50;;;6.80;;
59872;SDS011;50750;51.636;4.948;2024-01-11T08:01:10;11.30;;;7.10;;
59872;SDS011;50750;51.636;4.948;2024-01-11T08:03:41;11.60;;;6.90;;
59872;SDS011;50750;51.636;4.948;2024-01-11T08:06:12;10.80;;;7.00;;
59872;SDS011;50750;51.636;4.948;2024-01-11T08:08:43;13.40;;;6.90;;
59872;SDS011;50750;51.636;4.948;2024-01-11T08:11:18;10.60;;;7.70;;
59872;SDS011;50750;51.636;4.948;2024-01-11T08:13:50;12.90;;;7.30;;
59872;SDS011;50750;51.636;4.948;2024-01-11T08:16:22;10.80;;;6.90;;
59872;SDS011;50750;51.636;4.948;2024-01-11T08:18:52;12.20;;;7.10;;
59872;SDS011;50750;51.636;4.948;2024-01-11T08:21:22;10.00;;;6.90;;
59872;SDS011;50750;51.636;4.948;2024-01-11T08:23:53;11.60;;;7.10;;
59872;SDS011;50750;51.636;4.948;2024-01-11T08:26:23;12.20;;;7.30;;
59872;SDS011;50750;51.636;4.948;2024-01-11T08:28:53;11.20;;;6.80;;
59872;SDS011;50750;51.636;4.948;2024-01-11T08:31:24;13.70;;;8.20;;
59872;SDS011;50750;51.636;4.948;2024-01-11T08:33:54;11.40;;;6.90;;
59872;SDS011;50750;51.636;4.948;2024-01-11T08:36:24;13.60;;;7.50;;
59872;SDS011;50750;51.636;4.948;2024-01-11T08:38:58;11.00;;;7.00;;
59872;SDS011;50750;51.636;4.948;2024-01-11T08:41:31;11.20;;;7.20;;
59872;SDS011;50750;51.636;4.948;2024-01-11T08:44:01;12.20;;;8.00;;
59872;SDS011;50750;51.636;4.948;2024-01-11T08:46:34;12.50;;;8.00;;
59872;SDS011;50750;51.636;4.948;2024-01-11T08:49:05;11.40;;;7.40;;
59872;SDS011;50750;51.636;4.948;2024-01-11T08:51:35;12.50;;;7.70;;
59872;SDS011;50750;51.636;4.948;2024-01-11T08:54:06;12.90;;;7.60;;
59872;SDS011;50750;51.636;4.948;2024-01-11T08:56:39;11.70;;;7.70;;
59872;SDS011;50750;51.636;4.948;2024-01-11T08:59:09;11.90;;;8.00;;
59872;SDS011;50750;51.636;4.948;2024-01-11T09:01:39;11.70;;;7.80;;
59872;SDS011;50750;51.636;4.948;2024-01-11T09:04:09;12.10;;;8.20;;
59872;SDS011;50750;51.636;4.948;2024-01-11T09:06:40;12.40;;;8.00;;
59872;SDS011;50750;51.636;4.948;2024-01-11T09:09:11;11.60;;;8.10;;
59872;SDS011;50750;51.636;4.948;2024-01-11T09:11:41;14.10;;;8.30;;
59872;SDS011;50750;51.636;4.948;2024-01-11T09:14:12;15.10;;;8.80;;
59872;SDS011;50750;51.636;4.948;2024-01-11T09:16:42;16.20;;;8.60;;
59872;SDS011;50750;51.636;4.948;2024-01-11T09:19:13;13.90;;;8.00;;
59872;SDS011;50750;51.636;4.948;2024-01-11T09:21:43;12.60;;;8.70;;
59872;SDS011;50750;51.636;4.948;2024-01-11T09:24:14;11.50;;;8.40;;
59872;SDS011;50750;51.636;4.948;2024-01-11T09:26:44;12.00;;;8.00;;
59872;SDS011;50750;51.636;4.948;2024-01-11T09:29:17;12.20;;;8.30;;
59872;SDS011;50750;51.636;4.948;2024-01-11T09:31:47;13.80;;;8.90;;
59872;SDS011;50750;51.636;4.948;2024-01-11T09:34:18;13.50;;;8.60;;
59872;SDS011;50750;51.636;4.948;2024-01-11T09:36:48;13.40;;;8.90;;
59872;SDS011;50750;51.636;4.948;2024-01-11T09:39:19;12.40;;;8.60;;
59872;SDS011;50750;51.636;4.948;2024-01-11T09:41:51;14.00;;;9.40;;
59872;SDS011;50750;51.636;4.948;2024-01-11T09:44:26;13.00;;;8.50;;
59872;SDS011;50750;51.636;4.948;2024-01-11T09:46:57;13.60;;;9.10;;
59872;SDS011;50750;51.636;4.948;2024-01-11T09:49:30;12.20;;;8.80;;
59872;SDS011;50750;51.636;4.948;2024-01-11T09:52:01;13.30;;;9.10;;
59872;SDS011;50750;51.636;4.948;2024-01-11T09:54:33;13.20;;;9.00;;
59872;SDS011;50750;51.636;4.948;2024-01-11T09:57:04;12.60;;;9.00;;
59872;SDS011;50750;51.636;4.948;2024-01-11T09:59:37;11.80;;;8.60;;
59872;SDS011;50750;51.636;4.948;2024-01-11T10:02:08;12.40;;;8.80;;
59872;SDS011;50750;51.636;4.948;2024-01-11T10:04:42;12.00;;;8.20;;
59872;SDS011;50750;51.636;4.948;2024-01-11T10:07:12;12.40;;;8.50;;
59872;SDS011;50750;51.636;4.948;2024-01-11T10:09:46;12.70;;;8.60;;
59872;SDS011;50750;51.636;4.948;2024-01-11T10:12:16;12.80;;;8.90;;
59872;SDS011;50750;51.636;4.948;2024-01-11T10:14:51;12.30;;;8.60;;
59872;SDS011;50750;51.636;4.948;2024-01-11T10:17:21;13.10;;;8.50;;
59872;SDS011;50750;51.636;4.948;2024-01-11T10:19:54;12.60;;;8.70;;
59872;SDS011;50750;51.636;4.948;2024-01-11T10:22:26;11.20;;;8.10;;
59872;SDS011;50750;51.636;4.948;2024-01-11T10:25:08;12.00;;;8.70;;
59872;SDS011;50750;51.636;4.948;2024-01-11T10:27:41;13.80;;;8.60;;
59872;SDS011;50750;51.636;4.948;2024-01-11T10:30:13;14.00;;;8.60;;
59872;SDS011;50750;51.636;4.948;2024-01-11T10:32:44;11.90;;;9.00;;
59872;SDS011;50750;51.636;4.948;2024-01-11T10:35:16;13.60;;;8.40;;
59872;SDS011;50750;51.636;4.948;2024-01-11T10:37:47;13.50;;;9.00;;
59872;SDS011;50750;51.636;4.948;2024-01-11T10:40:22;12.40;;;8.40;;
59872;SDS011;50750;51.636;4.948;2024-01-11T10:42:53;14.80;;;9.40;;
59872;SDS011;50750;51.636;4.948;2024-01-11T10:45:29;12.80;;;8.60;;
59872;SDS011;50750;51.636;4.948;2024-01-11T10:48:11;13.90;;;8.90;;
59872;SDS011;50750;51.636;4.948;2024-01-11T10:50:45;14.00;;;9.10;;
59872;SDS011;50750;51.636;4.948;2024-01-11T10:53:21;11.80;;;8.70;;
59872;SDS011;50750;51.636;4.948;2024-01-11T10:56:01;12.70;;;9.10;;
59872;SDS011;50750;51.636;4.948;2024-01-11T10:58:35;13.80;;;9.00;;
59872;SDS011;50750;51.636;4.948;2024-01-11T11:01:08;13.90;;;8.60;;
59872;SDS011;50750;51.636;4.948;2024-01-11T11:03:39;14.30;;;9.60;;
59872;SDS011;50750;51.636;4.948;2024-01-11T11:06:11;15.10;;;9.10;;
59872;SDS011;50750;51.636;4.948;2024-01-11T11:08:42;13.40;;;8.80;;
59872;SDS011;50750;51.636;4.948;2024-01-11T11:11:14;13.60;;;9.00;;
59872;SDS011;50750;51.636;4.948;2024-01-11T11:13:47;14.00;;;8.80;;
59872;SDS011;50750;51.636;4.948;2024-01-11T11:16:18;14.40;;;9.30;;
59872;SDS011;50750;51.636;4.948;2024-01-11T11:18:48;13.10;;;8.60;;
59872;SDS011;50750;51.636;4.948;2024-01-11T11:21:22;12.90;;;8.80;;
59872;SDS011;50750;51.636;4.948;2024-01-11T11:23:54;13.90;;;9.10;;
59872;SDS011;50750;51.636;4.948;2024-01-11T11:26:26;13.20;;;9.00;;
59872;SDS011;50750;51.636;4.948;2024-01-11T11:28:56;13.00;;;9.20;;
59872;SDS011;50750;51.636;4.948;2024-01-11T11:31:37;12.40;;;8.90;;
59872;SDS011;50750;51.636;4.948;2024-01-11T11:34:12;14.80;;;9.00;;
59872;SDS011;50750;51.636;4.948;2024-01-11T11:36:42;13.10;;;8.70;;
59872;SDS011;50750;51.636;4.948;2024-01-11T11:39:17;14.40;;;9.10;;
59872;SDS011;50750;51.636;4.948;2024-01-11T11:41:48;14.70;;;9.50;;
59872;SDS011;50750;51.636;4.948;2024-01-11T11:44:20;15.10;;;9.90;;
59872;SDS011;50750;51.636;4.948;2024-01-11T11:46:50;13.80;;;9.40;;
59872;SDS011;50750;51.636;4.948;2024-01-11T11:49:21;14.20;;;10.10;;
59872;SDS011;50750;51.636;4.948;2024-01-11T11:52:25;13.90;;;9.20;;
59872;SDS011;50750;51.636;4.948;2024-01-11T11:54:57;13.00;;;9.20;;
59872;SDS011;50750;51.636;4.948;2024-01-11T11:57:28;12.40;;;9.00;;
59872;SDS011;50750;51.636;4.948;2024-01-11T12:00:00;14.20;;;9.50;;
59872;SDS011;50750;51.636;4.948;2024-01-11T12:02:33;12.80;;;9.40;;
59872;SDS011;50750;51.636;4.948;2024-01-11T12:05:05;13.80;;;9.60;;
59872;SDS011;50750;51.636;4.948;2024-01-11T12:07:36;15.10;;;9.60;;
59872;SDS011;50750;51.636;4.948;2024-01-11T12:10:06;15.00;;;10.20;;
59872;SDS011;50750;51.636;4.948;2024-01-11T12:12:37;14.30;;;9.30;;
59872;SDS011;50750;51.636;4.948;2024-01-11T12:15:09;13.00;;;9.00;;
59872;SDS011;50750;51.636;4.948;2024-01-11T12:17:40;13.30;;;9.50;;
59872;SDS011;50750;51.636;4.948;2024-01-11T12:20:11;13.40;;;9.60;;
59872;SDS011;50750;51.636;4.948;2024-01-11T12:22:42;13.40;;;8.40;;
59872;SDS011;50750;51.636;4.948;2024-01-11T12:25:12;13.80;;;9.30;;
59872;SDS011;50750;51.636;4.948;2024-01-11T12:27:43;13.40;;;8.80;;
59872;SDS011;50750;51.636;4.948;2024-01-11T12:30:14;13.80;;;8.70;;
59872;SDS011;50750;51.636;4.948;2024-01-11T12:32:46;16.00;;;9.00;;
59872;SDS011;50750;51.636;4.948;2024-01-11T12:35:17;13.00;;;8.70;;
59872;SDS011;50750;51.636;4.948;2024-01-11T12:37:53;13.50;;;8.90;;
59872;SDS011;50750;51.636;4.948;2024-01-11T12:40:24;12.50;;;8.00;;
59872;SDS011;50750;51.636;4.948;2024-01-11T12:42:56;12.00;;;8.00;;
59872;SDS011;50750;51.636;4.948;2024-01-11T12:45:28;11.80;;;7.80;;
59872;SDS011;50750;51.636;4.948;2024-01-11T12:47:59;11.50;;;7.40;;
59872;SDS011;50750;51.636;4.948;2024-01-11T12:50:31;12.70;;;7.80;;
59872;SDS011;50750;51.636;4.948;2024-01-11T12:53:06;10.90;;;7.40;;
59872;SDS011;50750;51.636;4.948;2024-01-11T12:55:39;12.30;;;7.50;;
59872;SDS011;50750;51.636;4.948;2024-01-11T12:58:10;11.90;;;7.60;;
59872;SDS011;50750;51.636;4.948;2024-01-11T13:00:40;12.50;;;8.00;;
59872;SDS011;50750;51.636;4.948;2024-01-11T13:03:10;14.20;;;7.20;;
59872;SDS011;50750;51.636;4.948;2024-01-11T13:05:41;10.90;;;7.20;;
59872;SDS011;50750;51.636;4.948;2024-01-11T13:08:11;10.80;;;6.70;;
59872;SDS011;50750;51.636;4.948;2024-01-11T13:10:42;10.60;;;6.70;;
59872;SDS011;50750;51.636;4.948;2024-01-11T13:13:14;10.90;;;7.00;;
59872;SDS011;50750;51.636;4.948;2024-01-11T13:15:45;11.20;;;6.70;;
59872;SDS011;50750;51.636;4.948;2024-01-11T13:18:15;11.70;;;7.20;;
59872;SDS011;50750;51.636;4.948;2024-01-11T13:20:46;10.60;;;7.00;;
59872;SDS011;50750;51.636;4.948;2024-01-11T13:23:16;10.10;;;7.20;;
59872;SDS011;50750;51.636;4.948;2024-01-11T13:25:48;11.40;;;7.00;;
59872;SDS011;50750;51.636;4.948;2024-01-11T13:28:19;11.60;;;7.20;;
59872;SDS011;50750;51.636;4.948;2024-01-11T13:30:50;12.80;;;7.00;;
59872;SDS011;50750;51.636;4.948;2024-01-11T13:33:20;9.70;;;6.20;;
59872;SDS011;50750;51.636;4.948;2024-01-11T13:35:51;10.50;;;6.60;;
59872;SDS011;50750;51.636;4.948;2024-01-11T13:38:21;10.60;;;6.50;;
59872;SDS011;50750;51.636;4.948;2024-01-11T13:40:52;11.00;;;7.20;;
59872;SDS011;50750;51.636;4.948;2024-01-11T13:43:23;9.80;;;6.40;;
59872;SDS011;50750;51.636;4.948;2024-01-11T13:45:53;11.00;;;6.50;;
59872;SDS011;50750;51.636;4.948;2024-01-11T13:48:23;9.40;;;6.30;;
59872;SDS011;50750;51.636;4.948;2024-01-11T13:50:54;9.60;;;6.40;;
59872;SDS011;50750;51.636;4.948;2024-01-11T13:53:24;10.50;;;6.40;;
59872;SDS011;50750;51.636;4.948;2024-01-11T13:55:54;10.40;;;6.70;;
59872;SDS011;50750;51.636;4.948;2024-01-11T13:58:25;10.50;;;6.20;;
59872;SDS011;50750;51.636;4.948;2024-01-11T14:00:55;11.00;;;6.50;;
59872;SDS011;50750;51.636;4.948;2024-01-11T14:03:25;10.20;;;5.90;;
59872;SDS011;50750;51.636;4.948;2024-01-11T14:05:55;10.20;;;6.60;;
59872;SDS011;50750;51.636;4.948;2024-01-11T14:08:27;9.20;;;5.80;;
59872;SDS011;50750;51.636;4.948;2024-01-11T14:10:57;9.10;;;5.60;;
59872;SDS011;50750;51.636;4.948;2024-01-11T14:13:28;9.10;;;6.10;;
59872;SDS011;50750;51.636;4.948;2024-01-11T14:15:58;9.00;;;5.70;;
59872;SDS011;50750;51.636;4.948;2024-01-11T14:18:29;9.10;;;5.60;;
59872;SDS011;50750;51.636;4.948;2024-01-11T14:20:59;9.30;;;5.70;;
59872;SDS011;50750;51.636;4.948;2024-01-11T14:23:29;10.00;;;6.00;;
59872;SDS011;50750;51.636;4.948;2024-01-11T14:25:59;9.30;;;5.70;;
59872;SDS011;50750;51.636;4.948;2024-01-11T14:28:30;10.70;;;5.90;;
59872;SDS011;50750;51.636;4.948;2024-01-11T14:31:00;9.20;;;5.40;;
59872;SDS011;50750;51.636;4.948;2024-01-11T14:33:31;9.00;;;5.80;;
59872;SDS011;50750;51.636;4.948;2024-01-11T14:36:04;9.10;;;5.50;;
59872;SDS011;50750;51.636;4.948;2024-01-11T14:38:35;9.20;;;5.70;;
59872;SDS011;50750;51.636;4.948;2024-01-11T14:41:05;9.10;;;5.20;;
59872;SDS011;50750;51.636;4.948;2024-01-11T14:43:36;9.50;;;5.70;;
59872;SDS011;50750;51.636;4.948;2024-01-11T14:46:07;8.80;;;5.20;;
59872;SDS011;50750;51.636;4.948;2024-01-11T14:48:38;8.20;;;5.40;;
59872;SDS011;50750;51.636;4.948;2024-01-11T14:51:09;8.30;;;5.20;;
59872;SDS011;50750;51.636;4.948;2024-01-11T14:53:39;9.10;;;5.50;;
59872;SDS011;50750;51.636;4.948;2024-01-11T14:56:09;9.70;;;5.70;;
59872;SDS011;50750;51.636;4.948;2024-01-11T14:58:41;8.30;;;5.30;;